createdAt,value
2023-04-08T00:00:17.329Z,13.66
2023-04-08T00:02:43.972Z,13.71
2023-04-08T00:05:10.620Z,13.73
2023-04-08T00:07:37.476Z,13.69
2023-04-08T00:10:04.317Z,13.62
2023-04-08T00:12:30.936Z,13.71
2023-04-08T00:14:58.030Z,13.83
2023-04-08T00:17:24.574Z,13.94
2023-04-08T00:19:51.727Z,13.96
2023-04-08T00:22:18.549Z,14.01
2023-04-08T00:24:45.040Z,14.06
2023-04-08T00:27:11.567Z,14.09
2023-04-08T00:29:38.050Z,14.01
2023-04-08T00:32:04.845Z,14.00
2023-04-08T00:34:31.326Z,14.03
2023-04-08T00:36:58.259Z,14.10
2023-04-08T00:39:25.044Z,14.10
2023-04-08T00:41:51.502Z,14.09
2023-04-08T00:44:18.097Z,14.07
2023-04-08T00:46:44.585Z,14.05
2023-04-08T00:49:11.438Z,14.08
2023-04-08T00:51:38.009Z,14.04
2023-04-08T00:54:05.299Z,14.03
2023-04-08T00:56:32.786Z,14.06
2023-04-08T00:59:00.418Z,14.09
2023-04-08T01:01:35.351Z,14.19
2023-04-08T01:04:20.695Z,14.26
2023-04-08T01:07:17.546Z,14.42
2023-04-08T01:09:46.952Z,14.14
2023-04-08T01:12:18.641Z,14.17
2023-04-08T01:14:47.190Z,14.17
2023-04-08T01:17:15.361Z,14.09
2023-04-08T01:19:44.781Z,14.15
2023-04-08T01:22:19.830Z,14.16
2023-04-08T01:24:47.905Z,14.05
2023-04-08T01:27:14.484Z,14.04
2023-04-08T01:29:42.097Z,14.08
2023-04-08T01:32:09.401Z,14.15
2023-04-08T01:34:36.375Z,14.16
2023-04-08T01:37:03.440Z,14.14
2023-04-08T01:39:30.556Z,14.10
2023-04-08T01:41:59.169Z,14.16
2023-04-08T01:44:26.463Z,14.16
2023-04-08T01:46:54.114Z,14.14
2023-04-08T01:49:22.605Z,14.16
2023-04-08T01:51:49.277Z,14.13
2023-04-08T01:54:16.172Z,14.16
2023-04-08T01:56:44.688Z,14.24
2023-04-08T01:59:14.235Z,14.19
2023-04-08T02:01:41.989Z,14.21
2023-04-08T02:04:08.666Z,14.17
2023-04-08T02:06:35.940Z,14.18
2023-04-08T02:09:02.806Z,14.11
2023-04-08T02:11:29.776Z,14.11
2023-04-08T02:13:56.890Z,14.17
2023-04-08T02:16:31.369Z,14.22
2023-04-08T02:19:08.532Z,14.22
2023-04-08T02:21:47.518Z,14.31
2023-04-08T02:24:15.480Z,14.23
2023-04-08T02:26:43.363Z,14.26
2023-04-08T02:29:12.792Z,14.26
2023-04-08T02:31:41.889Z,14.24
2023-04-08T02:34:10.438Z,14.25
2023-04-08T02:36:37.385Z,14.27
2023-04-08T02:39:04.133Z,14.27
2023-04-08T02:41:31.474Z,14.27
2023-04-08T02:43:58.480Z,14.16
2023-04-08T02:46:24.985Z,14.15
2023-04-08T02:48:51.908Z,14.07
2023-04-08T02:51:18.468Z,14.11
2023-04-08T02:53:45.390Z,14.16
2023-04-08T02:56:12.030Z,14.13
2023-04-08T02:58:38.583Z,14.12
2023-04-08T03:01:05.504Z,14.17
2023-04-08T03:03:32.295Z,14.11
2023-04-08T03:05:58.901Z,14.12
2023-04-08T03:08:25.881Z,14.11
2023-04-08T03:10:52.497Z,14.14
2023-04-08T03:13:19.045Z,14.14
2023-04-08T03:15:45.844Z,14.15
2023-04-08T03:18:12.346Z,14.22
2023-04-08T03:20:38.813Z,14.19
2023-04-08T03:23:05.445Z,14.26
2023-04-08T03:25:32.016Z,14.24
2023-04-08T03:27:58.616Z,14.24
2023-04-08T03:30:25.261Z,14.24
2023-04-08T03:32:51.816Z,14.28
2023-04-08T03:35:18.396Z,14.34
2023-04-08T03:37:44.922Z,14.31
2023-04-08T03:40:12.066Z,14.33
2023-04-08T03:42:38.682Z,14.33
2023-04-08T03:45:05.704Z,14.34
2023-04-08T03:47:32.334Z,14.38
2023-04-08T03:49:58.848Z,14.38
2023-04-08T03:52:25.661Z,14.45
2023-04-08T03:54:52.245Z,14.35
2023-04-08T03:57:18.715Z,14.32
2023-04-08T03:59:45.319Z,14.44
2023-04-08T04:02:11.871Z,14.52
2023-04-08T04:04:38.735Z,14.50
2023-04-08T04:07:05.274Z,14.51
2023-04-08T04:09:31.773Z,14.50
2023-04-08T04:11:58.262Z,14.48
2023-04-08T04:14:24.794Z,14.48
2023-04-08T04:16:51.277Z,14.39
2023-04-08T04:19:18.418Z,14.40
2023-04-08T04:21:44.966Z,14.38
2023-04-08T04:24:11.502Z,14.43
2023-04-08T04:26:38.118Z,14.51
2023-04-08T04:29:04.793Z,14.48
2023-04-08T04:31:31.363Z,14.53
2023-04-08T04:33:57.865Z,14.56
2023-04-08T04:36:24.347Z,14.56
2023-04-08T04:38:51.573Z,14.56
2023-04-08T04:41:18.392Z,14.57
2023-04-08T04:43:44.967Z,14.57
2023-04-08T04:46:11.514Z,14.57
2023-04-08T04:48:38.080Z,14.53
2023-04-08T04:51:04.624Z,14.59
2023-04-08T04:53:31.696Z,14.56
2023-04-08T04:55:58.624Z,14.64
2023-04-08T04:58:25.421Z,14.65
2023-04-08T05:00:51.975Z,14.62
2023-04-08T05:03:18.539Z,14.63
2023-04-08T05:05:45.406Z,14.58
2023-04-08T05:08:11.900Z,14.66
2023-04-08T05:10:40.799Z,14.70
2023-04-08T05:13:07.299Z,14.67
2023-04-08T05:15:33.801Z,14.66
2023-04-08T05:18:00.377Z,14.69
2023-04-08T05:20:26.904Z,14.74
2023-04-08T05:22:53.366Z,14.78
2023-04-08T05:25:19.951Z,14.80
2023-04-08T05:27:46.983Z,14.83
2023-04-08T05:30:13.527Z,14.77
2023-04-08T05:32:40.063Z,14.76
2023-04-08T05:35:07.027Z,14.82
2023-04-08T05:37:33.509Z,14.76
2023-04-08T05:40:00.040Z,14.72
2023-04-08T05:42:27.075Z,14.78
2023-04-08T05:44:53.552Z,14.79
2023-04-08T05:47:20.306Z,14.80
2023-04-08T05:49:46.817Z,14.80
2023-04-08T05:52:13.328Z,14.82
2023-04-08T05:54:42.976Z,15.02
2023-04-08T05:57:10.524Z,14.98
2023-04-08T05:59:37.106Z,14.89
2023-04-08T06:02:03.810Z,14.88
2023-04-08T06:04:30.496Z,14.95
2023-04-08T06:06:59.734Z,15.01
2023-04-08T06:09:26.489Z,15.02
2023-04-08T06:11:52.971Z,15.10
2023-04-08T06:14:20.837Z,15.10
2023-04-08T06:16:47.528Z,15.09
2023-04-08T06:19:14.057Z,15.17
2023-04-08T06:21:40.550Z,15.16
2023-04-08T06:24:07.021Z,15.21
2023-04-08T06:26:33.558Z,15.23
2023-04-08T06:29:00.630Z,15.29
2023-04-08T06:31:27.141Z,15.35
2023-04-08T06:33:53.644Z,15.45
2023-04-08T06:36:20.471Z,15.56
2023-04-08T06:38:47.074Z,15.64
2023-04-08T06:41:13.558Z,15.67
2023-04-08T06:43:40.044Z,15.67
2023-04-08T06:46:07.027Z,15.66
2023-04-08T06:48:33.704Z,15.71
2023-04-08T06:51:01.293Z,15.73
2023-04-08T06:53:29.456Z,15.75
2023-04-08T06:55:55.985Z,15.74
2023-04-08T06:58:22.658Z,15.77
2023-04-08T07:00:49.250Z,15.88
2023-04-08T07:03:16.075Z,15.85
2023-04-08T07:05:42.617Z,15.89
2023-04-08T07:08:09.222Z,15.84
2023-04-08T07:10:36.102Z,15.78
2023-04-08T07:13:02.993Z,15.78
2023-04-08T07:15:29.544Z,15.88
2023-04-08T07:17:59.914Z,15.92
2023-04-08T07:20:26.642Z,16.01
2023-04-08T07:22:53.232Z,16.10
2023-04-08T07:25:19.809Z,16.29
2023-04-08T07:27:46.558Z,16.42
2023-04-08T07:30:13.159Z,16.46
2023-04-08T07:32:39.871Z,16.46
2023-04-08T07:35:06.574Z,16.50
2023-04-08T07:37:33.141Z,16.57
2023-04-08T07:39:59.637Z,16.62
2023-04-08T07:42:26.125Z,16.61
2023-04-08T07:44:52.841Z,16.65
2023-04-08T07:47:19.411Z,16.62
2023-04-08T07:49:47.008Z,16.69
2023-04-08T07:52:13.494Z,16.80
2023-04-08T07:54:40.022Z,16.87
2023-04-08T07:57:06.623Z,16.83
2023-04-08T07:59:33.388Z,16.85
2023-04-08T08:01:59.897Z,16.94
2023-04-08T08:04:26.755Z,17.00
2023-04-08T08:06:53.418Z,16.99
2023-04-08T08:09:19.924Z,16.93
2023-04-08T08:11:46.435Z,16.95
2023-04-08T08:14:13.956Z,17.02
2023-04-08T08:16:40.512Z,16.97
2023-04-08T08:19:08.767Z,16.99
2023-04-08T08:21:38.282Z,17.11
2023-04-08T08:24:05.031Z,17.14
2023-04-08T08:26:31.535Z,17.23
2023-04-08T08:28:58.056Z,17.32
2023-04-08T08:31:24.567Z,17.43
2023-04-08T08:33:51.333Z,17.45
2023-04-08T08:36:18.214Z,17.47
2023-04-08T08:38:44.771Z,17.71
2023-04-08T08:41:11.257Z,17.96
2023-04-08T08:43:38.338Z,18.03
2023-04-08T08:46:04.824Z,17.98
2023-04-08T08:48:32.372Z,18.04
2023-04-08T08:50:58.854Z,18.08
2023-04-08T08:53:29.975Z,18.22
2023-04-08T08:58:27.739Z,18.14
2023-04-08T09:00:54.245Z,17.96
2023-04-08T09:03:27.657Z,18.02
2023-04-08T09:05:59.768Z,18.07
2023-04-08T09:08:36.886Z,18.24
2023-04-08T09:11:17.503Z,18.54
2023-04-08T09:13:45.068Z,18.62
2023-04-08T09:16:13.959Z,19.05
2023-04-08T09:18:44.815Z,19.64
2023-04-08T09:21:12.462Z,19.65
2023-04-08T09:23:49.938Z,19.43
2023-04-08T09:26:20.100Z,19.27
2023-04-08T09:29:14.748Z,19.26
2023-04-08T09:31:57.944Z,19.81
2023-04-08T09:34:25.598Z,18.99
2023-04-08T09:36:53.163Z,18.71
2023-04-08T09:39:19.874Z,18.54
2023-04-08T09:41:48.889Z,18.39
2023-04-08T09:44:17.039Z,18.30
2023-04-08T09:46:49.181Z,18.34
2023-04-08T09:49:23.034Z,18.21
2023-04-08T09:52:08.575Z,18.28
2023-04-08T09:54:53.206Z,18.39
2023-04-08T09:57:31.343Z,18.35
2023-04-08T10:00:03.535Z,18.25
2023-04-08T10:03:07.503Z,18.42
2023-04-08T10:05:37.802Z,18.26
2023-04-08T10:08:05.827Z,18.18
2023-04-08T10:10:32.810Z,18.13
2023-04-08T10:12:59.545Z,18.15
2023-04-08T10:15:36.906Z,18.30
2023-04-08T10:18:03.301Z,18.20
2023-04-08T10:20:38.729Z,18.37
2023-04-08T10:23:10.616Z,18.31
2023-04-08T10:25:48.020Z,18.86
2023-04-08T10:28:15.243Z,19.06
2023-04-08T10:30:46.152Z,19.44
2023-04-08T10:33:22.903Z,19.87
2023-04-08T10:36:00.889Z,19.84
2023-04-08T10:38:27.436Z,19.58
2023-04-08T10:40:54.246Z,19.46
2023-04-08T10:43:21.065Z,19.36
2023-04-08T10:45:51.345Z,19.24
2023-04-08T10:48:19.878Z,19.31
2023-04-08T10:50:56.985Z,19.40
2023-04-08T10:53:31.262Z,19.48
2023-04-08T10:56:08.113Z,19.59
2023-04-08T10:58:51.184Z,19.62
2023-04-08T11:01:19.858Z,19.51
2023-04-08T11:03:46.566Z,19.40
2023-04-08T11:06:13.257Z,19.38
2023-04-08T11:08:39.819Z,19.38
2023-04-08T11:11:11.681Z,19.31
2023-04-08T11:13:46.457Z,19.37
2023-04-08T11:16:19.441Z,19.40
2023-04-08T11:18:46.247Z,19.41
2023-04-08T11:21:12.863Z,19.38
2023-04-08T11:23:39.400Z,19.41
2023-04-08T11:26:06.527Z,19.34
2023-04-08T11:28:33.168Z,19.31
2023-04-08T11:30:59.827Z,19.27
2023-04-08T11:33:27.343Z,19.25
2023-04-08T11:35:54.054Z,19.33
2023-04-08T11:38:24.679Z,19.50
2023-04-08T11:40:55.575Z,19.55
2023-04-08T11:43:22.466Z,19.60
2023-04-08T11:45:49.031Z,19.62
2023-04-08T11:48:16.449Z,19.72
2023-04-08T11:50:43.956Z,19.61
2023-04-08T11:53:21.367Z,19.76
2023-04-08T11:55:48.968Z,19.56
2023-04-08T11:58:15.817Z,19.56
2023-04-08T12:00:42.853Z,19.54
2023-04-08T12:03:09.540Z,19.54
2023-04-08T12:05:36.347Z,19.55
2023-04-08T12:08:03.526Z,19.45
2023-04-08T12:10:30.098Z,19.49
2023-04-08T12:12:56.742Z,19.50
2023-04-08T12:15:23.248Z,19.59
2023-04-08T12:17:49.911Z,19.71
2023-04-08T12:20:17.330Z,19.95
2023-04-08T12:22:43.867Z,20.34
2023-04-08T12:25:10.354Z,20.66
2023-04-08T12:27:36.864Z,20.83
2023-04-08T12:30:03.692Z,21.29
2023-04-08T12:32:30.224Z,21.56
2023-04-08T12:34:56.870Z,21.93
2023-04-08T12:37:23.376Z,22.44
2023-04-08T12:39:49.932Z,22.90
2023-04-08T12:42:16.603Z,23.44
2023-04-08T12:44:43.127Z,23.98
2023-04-08T12:47:09.817Z,24.26
2023-04-08T12:49:48.823Z,24.33
2023-04-08T12:52:16.216Z,24.12
2023-04-08T12:54:42.800Z,24.05
2023-04-08T12:57:09.333Z,23.92
2023-04-08T12:59:35.986Z,23.69
2023-04-08T13:02:02.555Z,23.35
2023-04-08T13:04:29.083Z,23.17
2023-04-08T13:06:56.357Z,23.00
2023-04-08T13:09:22.978Z,23.03
2023-04-08T13:11:49.590Z,23.36
2023-04-08T13:14:16.432Z,23.59
2023-04-08T13:16:42.958Z,23.59
2023-04-08T13:19:09.486Z,23.36
2023-04-08T13:21:36.244Z,23.19
2023-04-08T13:24:02.750Z,23.06
2023-04-08T13:26:29.350Z,23.02
2023-04-08T13:28:57.610Z,22.85
2023-04-08T13:31:24.942Z,22.63
2023-04-08T13:33:51.581Z,22.76
2023-04-08T13:36:18.150Z,23.21
2023-04-08T13:38:46.068Z,23.67
2023-04-08T13:41:12.621Z,24.08
2023-04-08T13:43:39.089Z,24.69
2023-04-08T13:46:05.798Z,25.11
2023-04-08T13:48:32.406Z,25.66
2023-04-08T13:50:58.915Z,25.71
2023-04-08T13:53:25.377Z,25.72
2023-04-08T13:55:55.165Z,25.99
2023-04-08T13:58:24.168Z,26.25
2023-04-08T14:00:51.678Z,26.62
2023-04-08T14:03:18.987Z,26.65
2023-04-08T14:05:45.911Z,26.27
2023-04-08T14:08:13.616Z,25.95
2023-04-08T14:10:41.911Z,25.46
2023-04-08T14:13:08.867Z,25.19
2023-04-08T14:15:35.442Z,24.86
2023-04-08T14:18:02.100Z,24.76
2023-04-08T14:20:28.694Z,24.79
2023-04-08T14:22:56.658Z,24.67
2023-04-08T14:25:23.646Z,24.42
2023-04-08T14:27:58.040Z,24.16
2023-04-08T14:30:25.794Z,24.16
2023-04-08T14:32:52.760Z,24.37
2023-04-08T14:35:19.353Z,24.66
2023-04-08T14:37:45.898Z,24.77
2023-04-08T14:40:12.530Z,25.07
2023-04-08T14:42:39.180Z,25.44
2023-04-08T14:45:06.067Z,25.80
2023-04-08T14:47:32.705Z,25.89
2023-04-08T14:49:59.225Z,25.66
2023-04-08T14:52:25.713Z,25.36
2023-04-08T14:54:53.670Z,24.88
2023-04-08T14:57:20.391Z,24.53
2023-04-08T14:59:46.941Z,24.24
2023-04-08T15:02:13.730Z,23.95
2023-04-08T15:04:40.365Z,23.66
2023-04-08T15:07:07.558Z,23.29
2023-04-08T15:09:34.099Z,23.10
2023-04-08T15:12:01.365Z,22.77
2023-04-08T15:14:28.115Z,22.60
2023-04-08T15:16:54.648Z,22.50
2023-04-08T15:19:21.192Z,22.38
2023-04-08T15:21:47.693Z,22.26
2023-04-08T15:24:14.216Z,22.18
2023-04-08T15:26:41.098Z,22.22
2023-04-08T15:29:07.983Z,22.14
2023-04-08T15:31:35.191Z,22.06
2023-04-08T15:34:02.887Z,21.97
2023-04-08T15:36:29.950Z,21.83
2023-04-08T15:38:56.796Z,21.71
2023-04-08T15:41:23.290Z,21.49
2023-04-08T15:43:50.182Z,21.37
2023-04-08T15:46:22.994Z,21.34
2023-04-08T15:48:50.197Z,21.07
2023-04-08T15:51:18.127Z,20.99
2023-04-08T15:53:44.690Z,20.93
2023-04-08T15:56:18.084Z,21.07
2023-04-08T15:58:45.644Z,20.94
2023-04-08T16:01:12.360Z,20.96
2023-04-08T16:03:39.296Z,20.82
2023-04-08T16:06:06.224Z,20.82
2023-04-08T16:08:34.741Z,20.79
2023-04-08T16:11:02.718Z,20.76
2023-04-08T16:13:30.208Z,20.73
2023-04-08T16:15:58.186Z,20.52
2023-04-08T16:18:25.187Z,20.50
2023-04-08T16:20:51.731Z,20.44
2023-04-08T16:23:18.248Z,20.37
2023-04-08T16:25:45.054Z,20.39
2023-04-08T16:28:11.857Z,20.38
2023-04-08T16:30:38.800Z,20.42
2023-04-08T16:33:06.269Z,20.42
2023-04-08T16:35:33.017Z,20.38
2023-04-08T16:37:59.646Z,20.35
2023-04-08T16:40:26.236Z,20.28
2023-04-08T16:42:52.889Z,20.35
2023-04-08T16:45:19.531Z,20.27
2023-04-08T16:47:46.146Z,20.25
2023-04-08T16:50:12.730Z,19.89
2023-04-08T16:52:39.236Z,19.92
2023-04-08T16:55:06.139Z,19.92
2023-04-08T16:57:32.590Z,19.91
2023-04-08T16:59:59.137Z,19.65
2023-04-08T17:02:26.053Z,19.29
2023-04-08T17:04:52.639Z,19.16
2023-04-08T17:07:19.174Z,18.96
2023-04-08T17:09:49.478Z,18.68
2023-04-08T17:12:16.293Z,18.65
2023-04-08T17:14:42.969Z,18.59
2023-04-08T17:17:09.519Z,18.53
2023-04-08T17:19:36.704Z,18.36
2023-04-08T17:22:03.216Z,18.05
2023-04-08T17:24:29.853Z,17.90
2023-04-08T17:26:59.952Z,17.87
2023-04-08T17:29:26.493Z,17.95
2023-04-08T17:31:53.145Z,17.57
2023-04-08T17:34:19.677Z,17.48
2023-04-08T17:36:46.318Z,17.08
2023-04-08T17:39:12.854Z,16.90
2023-04-08T17:41:41.094Z,17.06
2023-04-08T17:44:08.651Z,16.85
2023-04-08T17:46:35.444Z,16.90
2023-04-08T17:49:01.989Z,16.69
2023-04-08T17:51:30.195Z,16.82
2023-04-08T17:53:56.767Z,16.71
2023-04-08T17:56:23.670Z,16.41
2023-04-08T17:58:50.290Z,16.29
2023-04-08T18:01:17.111Z,16.32
2023-04-08T18:03:43.870Z,16.33
2023-04-08T18:06:10.690Z,16.23
2023-04-08T18:08:37.181Z,16.22
2023-04-08T18:11:06.623Z,16.21
2023-04-08T18:13:33.327Z,16.28
2023-04-08T18:15:59.843Z,16.17
2023-04-08T18:18:26.332Z,15.97
2023-04-08T18:20:52.846Z,15.93
2023-04-08T18:23:19.392Z,15.84
2023-04-08T18:25:46.723Z,15.80
2023-04-08T18:28:13.277Z,15.67
2023-04-08T18:30:39.808Z,15.59
2023-04-08T18:33:06.781Z,15.71
2023-04-08T18:35:33.381Z,15.79
2023-04-08T18:37:59.877Z,15.59
2023-04-08T18:40:26.531Z,15.76
2023-04-08T18:42:53.041Z,15.48
2023-04-08T18:45:19.553Z,15.39
2023-04-08T18:47:46.538Z,15.63
2023-04-08T18:50:13.035Z,15.69
2023-04-08T18:52:39.595Z,15.71
2023-04-08T18:55:06.250Z,15.85
2023-04-08T18:57:33.198Z,15.87
2023-04-08T18:59:59.681Z,15.98
2023-04-08T19:02:26.265Z,15.98
2023-04-08T19:04:52.823Z,15.94
2023-04-08T19:07:19.373Z,15.87
2023-04-08T19:09:45.883Z,15.94
2023-04-08T19:12:12.506Z,16.03
2023-04-08T19:14:39.651Z,15.96
2023-04-08T19:17:06.299Z,16.04
2023-04-08T19:19:32.803Z,16.11
2023-04-08T19:22:02.682Z,16.02
2023-04-08T19:24:29.201Z,16.09
2023-04-08T19:26:55.719Z,16.16
2023-04-08T19:29:23.370Z,16.13
2023-04-08T19:31:50.070Z,16.02
2023-04-08T19:34:16.587Z,16.02
2023-04-08T19:36:43.118Z,16.07
2023-04-08T19:39:09.581Z,16.18
2023-04-08T19:41:36.096Z,16.21
2023-04-08T19:44:02.560Z,16.23
2023-04-08T19:46:29.495Z,16.24
2023-04-08T19:48:58.730Z,16.29
2023-04-08T19:51:25.285Z,16.27
2023-04-08T19:53:53.191Z,16.30
2023-04-08T19:56:19.929Z,16.29
2023-04-08T19:58:46.516Z,16.10
2023-04-08T20:01:14.155Z,16.22
2023-04-08T20:03:42.117Z,16.30
2023-04-08T20:06:08.973Z,16.31
2023-04-08T20:08:35.591Z,16.33
2023-04-08T20:11:04.464Z,16.19
2023-04-08T20:13:31.346Z,16.24
2023-04-08T20:15:58.020Z,16.15
2023-04-08T20:18:24.517Z,16.00
2023-04-08T20:20:51.060Z,15.96
2023-04-08T20:23:17.591Z,15.94
2023-04-08T20:25:44.048Z,15.92
2023-04-08T20:28:10.540Z,15.97
2023-04-08T20:30:37.752Z,15.99
2023-04-08T20:33:04.393Z,16.06
2023-04-08T20:35:31.034Z,16.12
2023-04-08T20:37:57.552Z,16.10
2023-04-08T20:40:24.096Z,16.14
2023-04-08T20:42:50.594Z,16.16
2023-04-08T20:45:17.048Z,16.16
2023-04-08T20:47:46.091Z,16.13
2023-04-08T20:50:12.727Z,16.13
2023-04-08T20:52:39.533Z,16.06
2023-04-08T20:55:07.115Z,15.99
2023-04-08T20:57:33.648Z,15.96
2023-04-08T21:00:00.559Z,15.96
2023-04-08T21:02:27.221Z,15.92
2023-04-08T21:04:53.774Z,15.97
2023-04-08T21:07:20.277Z,15.98
2023-04-08T21:09:48.297Z,15.96
2023-04-08T21:12:14.785Z,15.95
2023-04-08T21:14:42.069Z,15.93
2023-04-08T21:17:08.579Z,15.98
2023-04-08T21:19:35.435Z,15.97
2023-04-08T21:22:01.930Z,16.00
2023-04-08T21:24:28.554Z,16.01
2023-04-08T21:26:55.035Z,16.04
2023-04-08T21:29:21.526Z,16.03
2023-04-08T21:31:48.023Z,16.02
2023-04-08T21:34:15.745Z,16.04
2023-04-08T21:36:42.219Z,15.99
2023-04-08T21:39:08.709Z,15.96
2023-04-08T21:41:35.309Z,15.95
2023-04-08T21:44:02.148Z,15.92
2023-04-08T21:46:28.664Z,15.91
2023-04-08T21:48:55.300Z,15.79
2023-04-08T21:51:21.882Z,15.79
2023-04-08T21:53:50.652Z,15.79
2023-04-08T21:56:17.408Z,15.65
2023-04-08T21:58:43.955Z,15.65
2023-04-08T22:01:10.473Z,15.61
2023-04-08T22:03:37.075Z,15.56
2023-04-08T22:06:03.678Z,15.50
2023-04-08T22:08:32.506Z,15.46
2023-04-08T22:10:59.130Z,15.42
2023-04-08T22:13:25.616Z,15.39
2023-04-08T22:15:52.113Z,15.31
2023-04-08T22:18:18.615Z,15.24
2023-04-08T22:20:45.177Z,15.19
2023-04-08T22:23:11.680Z,15.16
2023-04-08T22:25:38.211Z,15.07
2023-04-08T22:28:04.667Z,15.02
2023-04-08T22:30:31.230Z,14.92
2023-04-08T22:32:57.906Z,14.97
2023-04-08T22:35:24.478Z,14.93
2023-04-08T22:37:51.174Z,14.91
2023-04-08T22:40:17.811Z,14.86
2023-04-08T22:42:44.300Z,14.78
2023-04-08T22:45:10.954Z,14.71
2023-04-08T22:47:37.645Z,14.68
2023-04-08T22:50:04.700Z,14.51
2023-04-08T22:52:31.203Z,14.42
2023-04-08T22:54:57.712Z,14.36
2023-04-08T22:57:24.281Z,14.30
2023-04-08T22:59:50.807Z,14.24
2023-04-08T23:02:17.471Z,14.14
2023-04-08T23:04:44.045Z,14.11
2023-04-08T23:07:11.064Z,14.04
2023-04-08T23:09:37.605Z,14.00
2023-04-08T23:12:04.141Z,13.95
2023-04-08T23:14:30.626Z,13.91
2023-04-08T23:16:57.115Z,13.79
2023-04-08T23:19:23.650Z,13.75
2023-04-08T23:21:50.383Z,13.68
2023-04-08T23:24:16.850Z,13.63
2023-04-08T23:26:43.369Z,13.59
2023-04-08T23:29:10.595Z,13.56
2023-04-08T23:31:37.107Z,13.53
2023-04-08T23:34:03.900Z,13.48
2023-04-08T23:36:31.349Z,13.43
2023-04-08T23:38:57.932Z,13.41
2023-04-08T23:41:24.450Z,13.33
2023-04-08T23:43:52.566Z,13.25
2023-04-08T23:46:19.115Z,13.22
2023-04-08T23:48:45.618Z,13.12
2023-04-08T23:51:12.169Z,13.13
2023-04-08T23:53:38.745Z,13.14
2023-04-08T23:56:06.520Z,13.07
2023-04-08T23:58:33.301Z,12.93
